createdAt,value
2022-08-17T00:00:56.672Z,22.29
2022-08-17T00:06:23.820Z,22.20
2022-08-17T00:12:42.278Z,22.22
2022-08-17T00:17:32.598Z,22.11
2022-08-17T00:23:04.134Z,22.28
2022-08-17T00:28:27.620Z,22.22
2022-08-17T00:33:57.809Z,22.21
2022-08-17T00:39:20.887Z,22.10
2022-08-17T00:44:44.021Z,22.06
2022-08-17T00:50:12.803Z,22.14
2022-08-17T00:55:36.524Z,21.96
2022-08-17T01:01:01.527Z,22.01
2022-08-17T01:06:27.099Z,22.08
2022-08-17T01:11:52.364Z,22.15
2022-08-17T01:17:15.609Z,22.15
2022-08-17T01:22:40.340Z,22.07
2022-08-17T01:28:03.911Z,22.11
2022-08-17T01:33:27.102Z,22.03
2022-08-17T01:38:51.667Z,21.96
2022-08-17T01:44:15.429Z,21.94
2022-08-17T01:49:38.692Z,21.94
2022-08-17T01:55:05.424Z,21.92
2022-08-17T02:00:59.610Z,21.85
2022-08-17T02:06:27.219Z,21.72
2022-08-17T02:11:52.843Z,21.85
2022-08-17T02:17:17.312Z,21.79
2022-08-17T02:22:42.128Z,21.82
2022-08-17T02:28:06.794Z,21.91
2022-08-17T02:33:42.716Z,21.94
2022-08-17T02:39:08.904Z,21.91
2022-08-17T02:44:40.846Z,22.07
2022-08-17T02:56:14.936Z,22.13
2022-08-17T03:01:39.541Z,22.14
2022-08-17T03:07:02.766Z,22.07
2022-08-17T03:12:25.934Z,21.70
2022-08-17T03:18:02.311Z,21.40
2022-08-17T03:23:47.166Z,20.87
2022-08-17T03:35:54.407Z,20.28
2022-08-17T03:41:17.619Z,20.13
2022-08-17T03:59:28.412Z,20.04
2022-08-17T04:05:27.341Z,20.16
2022-08-17T04:10:51.853Z,20.25
2022-08-17T04:16:14.947Z,20.41
2022-08-17T04:21:38.077Z,20.53
2022-08-17T04:27:02.500Z,20.55
2022-08-17T04:33:05.221Z,20.40
2022-08-17T04:38:12.235Z,20.36
2022-08-17T04:43:37.647Z,20.25
2022-08-17T04:49:02.730Z,20.17
2022-08-17T04:54:25.847Z,20.24
2022-08-17T04:59:50.342Z,20.26
2022-08-17T05:05:13.595Z,20.23
2022-08-17T05:10:45.527Z,20.16
2022-08-17T05:16:10.372Z,20.24
2022-08-17T05:21:33.550Z,20.13
2022-08-17T05:26:56.724Z,20.07
2022-08-17T05:32:39.362Z,20.02
2022-08-17T05:38:03.369Z,19.91
2022-08-17T05:43:28.685Z,19.98
2022-08-17T05:48:55.785Z,20.13
2022-08-17T05:54:35.014Z,20.26
2022-08-17T06:00:02.170Z,20.29
2022-08-17T06:05:51.502Z,20.28
2022-08-17T06:11:24.882Z,20.28
2022-08-17T06:17:19.050Z,20.31
2022-08-17T06:23:07.067Z,20.23
2022-08-17T06:28:36.594Z,20.17
2022-08-17T06:34:02.991Z,20.28
2022-08-17T06:39:35.960Z,20.38
2022-08-17T06:45:05.887Z,20.50
2022-08-17T06:50:37.168Z,20.62
2022-08-17T06:56:06.203Z,20.59
2022-08-17T07:01:33.058Z,20.64
2022-08-17T07:07:00.338Z,20.54
2022-08-17T07:12:27.688Z,20.73
2022-08-17T07:17:51.271Z,20.66
2022-08-17T07:23:22.494Z,20.54
2022-08-17T07:28:47.692Z,20.45
2022-08-17T07:34:14.566Z,20.42
2022-08-17T07:40:15.179Z,20.43
2022-08-17T07:45:36.438Z,20.56
2022-08-17T07:51:00.262Z,20.54
2022-08-17T07:56:36.405Z,20.44
2022-08-17T08:02:17.089Z,20.61
2022-08-17T08:07:50.492Z,20.77
2022-08-17T08:13:18.757Z,20.78
2022-08-17T08:18:54.051Z,20.75
2022-08-17T08:24:36.705Z,21.17
2022-08-17T08:30:06.451Z,21.50
2022-08-17T08:35:46.025Z,21.72
2022-08-17T08:41:25.422Z,21.73
2022-08-17T08:46:54.933Z,21.96
2022-08-17T08:52:32.248Z,22.13
2022-08-17T08:57:58.805Z,22.09
2022-08-17T09:03:51.490Z,22.42
2022-08-17T09:09:24.260Z,22.44
2022-08-17T09:14:54.475Z,22.34
2022-08-17T09:20:27.349Z,22.09
2022-08-17T09:26:00.296Z,21.88
2022-08-17T09:31:33.163Z,21.86
2022-08-17T09:37:05.284Z,21.73
2022-08-17T09:42:32.571Z,21.73
2022-08-17T09:48:00.388Z,21.64
2022-08-17T09:53:23.765Z,21.87
2022-08-17T09:59:02.432Z,22.17
2022-08-17T10:04:42.379Z,22.28
2022-08-17T10:10:14.373Z,22.31
2022-08-17T10:15:44.803Z,22.53
2022-08-17T10:21:27.255Z,22.91
2022-08-17T10:26:56.372Z,23.06
2022-08-17T10:32:30.122Z,22.82
2022-08-17T10:38:29.677Z,22.59
2022-08-17T10:44:37.298Z,22.14
2022-08-17T10:49:57.626Z,22.18
2022-08-17T10:55:26.295Z,21.92
2022-08-17T11:01:12.664Z,21.08
2022-08-17T11:06:46.557Z,21.42
2022-08-17T11:12:16.469Z,21.32
2022-08-17T11:18:08.610Z,20.98
2022-08-17T11:23:46.903Z,20.80
2022-08-17T11:29:20.707Z,20.63
2022-08-17T11:34:47.806Z,20.59
2022-08-17T11:40:22.517Z,20.65
2022-08-17T11:46:01.162Z,20.66
2022-08-17T11:51:42.936Z,20.81
2022-08-17T11:57:39.234Z,20.96
2022-08-17T12:03:53.996Z,20.76
2022-08-17T12:09:20.251Z,21.25
2022-08-17T12:20:35.613Z,21.44
2022-08-17T12:26:02.282Z,21.43
2022-08-17T12:31:27.946Z,21.75
2022-08-17T12:36:54.393Z,21.71
2022-08-17T12:42:24.085Z,21.55
2022-08-17T12:47:47.355Z,21.44
2022-08-17T12:53:13.912Z,21.37
2022-08-17T12:58:44.736Z,21.33
2022-08-17T13:04:07.843Z,21.40
2022-08-17T13:09:40.011Z,21.50
2022-08-17T13:15:04.575Z,21.01
2022-08-17T13:20:27.725Z,21.36
2022-08-17T13:25:55.899Z,21.30
2022-08-17T13:31:24.241Z,21.09
2022-08-17T13:36:48.853Z,20.77
2022-08-17T13:42:50.382Z,20.61
2022-08-17T13:48:25.107Z,20.63
2022-08-17T13:53:59.244Z,20.49
2022-08-17T13:59:38.212Z,20.68
2022-08-17T14:05:17.546Z,20.68
2022-08-17T14:16:26.738Z,21.17
2022-08-17T14:21:50.388Z,21.26
2022-08-17T14:27:13.489Z,21.43
2022-08-17T14:32:41.304Z,21.52
2022-08-17T14:38:04.551Z,21.56
2022-08-17T14:43:27.677Z,21.64
2022-08-17T14:48:57.219Z,21.71
2022-08-17T14:54:33.566Z,21.56
2022-08-17T14:59:57.763Z,21.62
2022-08-17T15:05:23.403Z,21.63
2022-08-17T15:10:50.005Z,22.02
2022-08-17T15:16:14.278Z,22.09
2022-08-17T15:21:39.781Z,22.14
2022-08-17T15:27:02.939Z,22.05
2022-08-17T15:32:27.451Z,22.05
2022-08-17T15:37:52.046Z,21.97
2022-08-17T15:43:17.785Z,21.87
2022-08-17T15:48:42.971Z,21.67
2022-08-17T15:54:19.256Z,21.84
2022-08-17T15:59:46.369Z,21.85
2022-08-17T16:05:17.448Z,21.71
2022-08-17T16:10:46.849Z,21.70
2022-08-17T16:16:11.999Z,21.63
2022-08-17T16:21:42.379Z,21.67
2022-08-17T16:27:12.533Z,21.70
2022-08-17T16:32:36.185Z,21.68
2022-08-17T16:37:59.430Z,21.50
2022-08-17T16:43:23.874Z,21.62
2022-08-17T16:48:47.087Z,21.65
2022-08-17T16:54:12.631Z,21.50
2022-08-17T16:59:42.736Z,21.32
2022-08-17T17:05:13.092Z,21.43
2022-08-17T17:10:40.090Z,21.46
2022-08-17T17:16:12.026Z,21.40
2022-08-17T17:21:40.306Z,21.50
2022-08-17T17:27:24.444Z,21.49
2022-08-17T17:32:52.016Z,21.44
2022-08-17T17:38:23.081Z,21.44
2022-08-17T17:44:01.687Z,21.26
2022-08-17T17:49:32.445Z,21.25
2022-08-17T17:55:05.370Z,21.22
2022-08-17T18:00:34.649Z,21.26
2022-08-17T18:06:18.651Z,21.26
2022-08-17T18:12:08.746Z,21.24
2022-08-17T18:17:33.417Z,21.35
2022-08-17T18:22:58.002Z,21.33
2022-08-17T18:28:26.098Z,21.30
2022-08-17T18:33:52.477Z,21.31
2022-08-17T18:39:19.346Z,21.11
2022-08-17T18:44:44.506Z,21.18
2022-08-17T18:50:22.576Z,21.18
2022-08-17T18:55:47.088Z,21.20
2022-08-17T19:01:19.447Z,21.18
2022-08-17T19:06:42.652Z,21.13
2022-08-17T19:12:10.656Z,21.11
2022-08-17T19:17:39.007Z,21.01
2022-08-17T19:23:08.448Z,20.97
2022-08-17T19:28:38.430Z,20.89
2022-08-17T19:34:04.297Z,20.79
2022-08-17T19:39:38.172Z,20.67
2022-08-17T19:45:05.406Z,20.75
2022-08-17T19:50:38.266Z,20.61
2022-08-17T19:56:04.703Z,20.52
2022-08-17T20:01:35.434Z,20.49
2022-08-17T20:07:02.189Z,20.35
2022-08-17T20:12:28.969Z,20.33
2022-08-17T20:17:53.923Z,20.39
2022-08-17T20:23:30.462Z,20.35
2022-08-17T20:29:09.450Z,20.41
2022-08-17T20:34:37.490Z,20.42
2022-08-17T20:40:28.548Z,20.45
2022-08-17T20:46:13.192Z,20.42
2022-08-17T20:51:43.041Z,20.44
2022-08-17T20:57:47.327Z,20.43
2022-08-17T21:03:51.177Z,20.40
2022-08-17T21:09:30.194Z,20.40
2022-08-17T21:14:59.742Z,20.33
2022-08-17T21:20:32.306Z,20.33
2022-08-17T21:26:12.904Z,20.20
2022-08-17T21:31:39.160Z,20.19
2022-08-17T21:37:29.707Z,20.17
2022-08-17T21:42:58.080Z,20.15
2022-08-17T21:48:22.693Z,20.09
2022-08-17T21:53:47.718Z,20.06
2022-08-17T21:59:25.718Z,20.09
2022-08-17T22:04:58.204Z,20.06
2022-08-17T22:10:30.462Z,20.04
2022-08-17T22:16:15.390Z,20.05
2022-08-17T22:22:03.594Z,20.06
2022-08-17T22:27:46.930Z,20.15
2022-08-17T22:33:39.627Z,19.99
2022-08-17T22:39:40.367Z,20.29
2022-08-17T22:45:03.534Z,20.34
2022-08-17T22:50:30.451Z,19.88
2022-08-17T22:56:28.186Z,20.26
2022-08-17T23:02:12.497Z,20.47
2022-08-17T23:07:37.277Z,20.58
2022-08-17T23:13:01.310Z,20.51
2022-08-17T23:18:27.346Z,20.52
2022-08-17T23:23:52.019Z,20.48
2022-08-17T23:29:15.147Z,20.42
2022-08-17T23:34:38.917Z,20.38
2022-08-17T23:40:03.501Z,20.35
2022-08-17T23:45:26.842Z,20.37
2022-08-17T23:50:51.644Z,20.36
2022-08-17T23:56:17.702Z,20.37
